createdAt,value
2022-09-03T00:03:09.834Z,1.90
2022-09-03T00:06:21.838Z,2.08
2022-09-03T00:09:29.992Z,2.05
2022-09-03T00:12:39.676Z,2.17
2022-09-03T00:15:42.049Z,2.20
2022-09-03T00:18:48.804Z,1.85
2022-09-03T00:22:19.322Z,2.05
2022-09-03T00:25:27.740Z,2.00
2022-09-03T00:28:41.896Z,2.10
2022-09-03T00:31:47.841Z,2.00
2022-09-03T00:34:57.208Z,1.83
2022-09-03T00:38:00.096Z,1.90
2022-09-03T00:44:12.916Z,2.30
2022-09-03T00:47:48.672Z,2.45
2022-09-03T00:51:00.393Z,2.25
2022-09-03T00:54:33.255Z,2.15
2022-09-03T00:58:08.744Z,2.58
2022-09-03T01:01:22.060Z,2.30
2022-09-03T01:04:54.372Z,2.40
2022-09-03T01:08:26.537Z,1.95
2022-09-03T01:11:47.518Z,2.20
2022-09-03T01:15:10.838Z,2.10
2022-09-03T01:18:21.700Z,2.20
2022-09-03T01:21:39.035Z,2.13
2022-09-03T01:25:12.033Z,2.40
2022-09-03T01:28:33.548Z,2.80
2022-09-03T01:31:57.696Z,2.40
2022-09-03T01:35:19.893Z,2.15
2022-09-03T01:38:32.096Z,2.30
2022-09-03T01:42:20.513Z,2.10
2022-09-03T01:45:40.376Z,2.38
2022-09-03T01:49:16.162Z,2.45
2022-09-03T01:52:38.451Z,2.63
2022-09-03T01:56:17.516Z,2.20
2022-09-03T01:59:27.880Z,2.33
2022-09-03T02:02:30.946Z,2.40
2022-09-03T02:05:35.810Z,2.63
2022-09-03T02:08:38.228Z,2.53
2022-09-03T02:11:41.327Z,2.28
2022-09-03T02:14:43.929Z,2.13
2022-09-03T02:17:49.883Z,2.42
2022-09-03T02:20:54.805Z,2.35
2022-09-03T02:23:56.786Z,2.25
2022-09-03T02:26:58.997Z,2.40
2022-09-03T02:30:01.015Z,2.10
2022-09-03T02:33:03.922Z,2.27
2022-09-03T02:36:09.319Z,2.30
2022-09-03T02:39:11.905Z,2.38
2022-09-03T02:42:15.719Z,2.08
2022-09-03T02:45:47.570Z,2.20
2022-09-03T02:48:50.568Z,2.55
2022-09-03T02:51:52.623Z,2.20
2022-09-03T02:54:54.511Z,2.50
2022-09-03T02:57:57.752Z,2.60
2022-09-03T03:00:59.988Z,2.58
2022-09-03T03:04:02.170Z,2.70
2022-09-03T03:07:05.084Z,2.70
2022-09-03T03:10:07.537Z,2.58
2022-09-03T03:13:09.569Z,2.63
2022-09-03T03:16:11.918Z,2.50
2022-09-03T03:19:13.806Z,2.38
2022-09-03T03:22:15.722Z,2.95
2022-09-03T03:25:17.858Z,2.50
2022-09-03T03:28:20.750Z,2.30
2022-09-03T03:31:23.404Z,2.53
2022-09-03T03:34:25.496Z,2.78
2022-09-03T03:37:27.384Z,2.53
2022-09-03T03:40:29.381Z,2.90
2022-09-03T03:43:31.295Z,2.63
2022-09-03T03:46:37.730Z,2.50
2022-09-03T03:49:39.707Z,2.45
2022-09-03T03:52:41.879Z,2.37
2022-09-03T03:55:43.932Z,2.70
2022-09-03T03:58:45.860Z,2.47
2022-09-03T04:01:49.092Z,2.97
2022-09-03T04:04:51.108Z,2.47
2022-09-03T04:07:53.029Z,2.57
2022-09-03T04:10:55.011Z,2.30
2022-09-03T04:13:56.991Z,2.42
2022-09-03T04:16:59.075Z,2.27
2022-09-03T04:20:01.118Z,2.00
2022-09-03T04:23:03.308Z,2.30
2022-09-03T04:26:06.293Z,1.83
2022-09-03T04:29:10.306Z,2.00
2022-09-03T04:32:31.051Z,1.80
2022-09-03T04:35:35.884Z,2.20
2022-09-03T04:38:42.053Z,1.90
2022-09-03T04:41:44.600Z,2.00
2022-09-03T04:44:46.489Z,1.98
2022-09-03T04:48:02.257Z,2.40
2022-09-03T04:51:07.316Z,2.08
2022-09-03T04:54:10.405Z,2.33
2022-09-03T04:57:12.387Z,2.00
2022-09-03T05:00:18.274Z,1.90
2022-09-03T05:03:22.304Z,1.60
2022-09-03T05:06:25.883Z,1.90
2022-09-03T05:09:27.794Z,1.58
2022-09-03T05:12:31.819Z,2.50
2022-09-03T05:15:33.729Z,2.20
2022-09-03T05:18:36.585Z,1.53
2022-09-03T05:21:38.702Z,1.67
2022-09-03T05:24:40.595Z,1.60
2022-09-03T05:27:42.668Z,1.63
2022-09-03T05:30:44.623Z,1.65
2022-09-03T05:33:59.748Z,1.92
2022-09-03T05:37:01.817Z,1.63
2022-09-03T05:40:04.785Z,1.65
2022-09-03T05:43:08.593Z,1.70
2022-09-03T05:46:18.701Z,1.80
2022-09-03T05:49:20.573Z,1.65
2022-09-03T05:52:23.612Z,2.23
2022-09-03T05:55:25.504Z,1.75
2022-09-03T05:58:42.452Z,1.83
2022-09-03T06:01:51.102Z,2.50
2022-09-03T06:04:56.278Z,2.92
2022-09-03T06:07:58.199Z,2.80
2022-09-03T06:11:01.957Z,2.37
2022-09-03T06:14:06.445Z,2.20
2022-09-03T06:17:11.389Z,1.40
2022-09-03T06:20:13.352Z,1.40
2022-09-03T06:23:15.325Z,1.48
2022-09-03T06:26:17.845Z,1.30
2022-09-03T06:29:20.361Z,1.40
2022-09-03T06:32:22.294Z,1.55
2022-09-03T06:35:24.233Z,1.50
2022-09-03T06:38:29.831Z,2.25
2022-09-03T06:41:35.634Z,3.17
2022-09-03T06:44:37.661Z,2.10
2022-09-03T06:47:39.606Z,1.90
2022-09-03T06:50:41.525Z,2.13
2022-09-03T06:53:46.493Z,1.67
2022-09-03T06:56:48.480Z,1.80
2022-09-03T06:59:50.670Z,1.42
2022-09-03T07:02:59.144Z,1.35
2022-09-03T07:06:13.434Z,1.50
2022-09-03T07:09:18.272Z,1.38
2022-09-03T07:12:20.441Z,1.60
2022-09-03T07:15:22.393Z,1.40
2022-09-03T07:18:24.449Z,1.45
2022-09-03T07:21:28.646Z,1.42
2022-09-03T07:24:30.668Z,2.75
2022-09-03T07:27:34.677Z,1.60
2022-09-03T07:30:36.787Z,1.20
2022-09-03T07:33:39.944Z,1.50
2022-09-03T07:36:51.419Z,1.48
2022-09-03T07:39:54.167Z,1.83
2022-09-03T07:43:03.568Z,1.42
2022-09-03T07:46:07.137Z,1.35
2022-09-03T07:49:09.617Z,1.23
2022-09-03T07:55:16.052Z,1.00
2022-09-03T07:58:18.143Z,1.20
2022-09-03T08:01:22.613Z,1.10
2022-09-03T08:04:24.569Z,1.00
2022-09-03T08:07:26.625Z,1.20
2022-09-03T08:10:31.240Z,1.05
2022-09-03T08:13:34.089Z,1.20
2022-09-03T08:16:39.739Z,1.48
2022-09-03T08:19:43.836Z,1.30
2022-09-03T08:22:46.360Z,1.45
2022-09-03T08:25:48.555Z,1.27
2022-09-03T08:28:53.003Z,1.20
2022-09-03T08:31:55.067Z,1.10
2022-09-03T08:34:57.109Z,1.17
2022-09-03T08:38:01.853Z,1.33
2022-09-03T08:41:12.926Z,1.58
2022-09-03T08:44:49.171Z,1.42
2022-09-03T08:48:07.522Z,1.70
2022-09-03T08:51:12.474Z,1.70
2022-09-03T08:54:16.192Z,2.05
2022-09-03T08:57:21.134Z,1.67
2022-09-03T09:00:23.315Z,5.60
2022-09-03T09:03:48.104Z,1.40
2022-09-03T09:07:28.186Z,1.10
2022-09-03T09:10:47.021Z,1.30
2022-09-03T09:14:11.767Z,1.45
2022-09-03T09:17:19.572Z,1.38
2022-09-03T09:20:48.369Z,1.33
2022-09-03T09:23:51.563Z,1.30
2022-09-03T09:26:59.668Z,1.20
2022-09-03T09:30:05.302Z,1.27
2022-09-03T09:33:08.129Z,1.60
2022-09-03T09:36:15.617Z,2.22
2022-09-03T09:39:17.807Z,1.10
2022-09-03T09:45:23.752Z,1.30
2022-09-03T09:48:34.550Z,1.88
2022-09-03T09:51:36.533Z,1.30
2022-09-03T09:54:40.508Z,1.30
2022-09-03T09:57:42.560Z,1.27
2022-09-03T10:01:00.229Z,1.38
2022-09-03T10:04:24.752Z,1.90
2022-09-03T10:07:34.913Z,1.50
2022-09-03T10:10:44.766Z,1.20
2022-09-03T10:13:48.731Z,1.40
2022-09-03T10:17:01.830Z,1.70
2022-09-03T10:20:37.389Z,1.20
2022-09-03T10:24:15.962Z,1.05
2022-09-03T10:27:19.989Z,1.15
2022-09-03T10:30:23.043Z,1.13
2022-09-03T10:33:34.983Z,1.25
2022-09-03T10:36:49.067Z,1.40
2022-09-03T10:40:28.924Z,1.40
2022-09-03T10:43:45.974Z,1.27
2022-09-03T10:47:03.771Z,1.85
2022-09-03T10:50:13.244Z,1.30
2022-09-03T10:53:33.812Z,1.33
2022-09-03T10:56:54.957Z,1.13
2022-09-03T11:00:09.892Z,1.30
2022-09-03T11:03:12.780Z,1.50
2022-09-03T11:06:26.313Z,1.80
2022-09-03T11:10:06.572Z,2.60
2022-09-03T11:13:20.390Z,1.65
2022-09-03T11:16:29.106Z,1.35
2022-09-03T11:19:57.660Z,3.50
2022-09-03T11:23:03.295Z,1.33
2022-09-03T11:26:13.751Z,1.20
2022-09-03T11:29:48.913Z,1.33
2022-09-03T11:33:00.548Z,1.40
2022-09-03T11:36:06.644Z,1.50
2022-09-03T11:39:35.236Z,1.20
2022-09-03T11:42:41.330Z,1.10
2022-09-03T11:45:43.514Z,1.50
2022-09-03T11:48:47.771Z,1.20
2022-09-03T11:52:01.100Z,1.00
2022-09-03T11:55:03.909Z,1.00
2022-09-03T11:58:39.517Z,1.45
2022-09-03T12:01:53.256Z,1.10
2022-09-03T12:05:02.545Z,1.20
2022-09-03T12:08:08.784Z,1.70
2022-09-03T12:11:30.555Z,1.00
2022-09-03T12:15:09.264Z,1.15
2022-09-03T12:18:22.753Z,1.33
2022-09-03T12:21:26.166Z,1.48
2022-09-03T12:24:35.827Z,1.10
2022-09-03T12:27:44.224Z,1.20
2022-09-03T12:30:47.108Z,2.30
2022-09-03T12:33:57.839Z,2.03
2022-09-03T12:36:59.925Z,1.10
2022-09-03T12:40:07.492Z,1.10
2022-09-03T12:46:38.210Z,1.02
2022-09-03T12:49:42.821Z,1.00
2022-09-03T12:52:56.627Z,1.02
2022-09-03T12:56:02.833Z,1.10
2022-09-03T12:59:12.369Z,1.17
2022-09-03T13:02:24.710Z,0.95
2022-09-03T13:05:42.385Z,1.20
2022-09-03T13:08:55.396Z,1.27
2022-09-03T13:11:59.295Z,1.40
2022-09-03T13:15:09.219Z,1.10
2022-09-03T13:18:26.476Z,1.30
2022-09-03T13:21:28.465Z,1.20
2022-09-03T13:24:59.487Z,1.15
2022-09-03T13:28:36.137Z,1.30
2022-09-03T13:31:47.742Z,1.30
2022-09-03T13:34:58.497Z,2.10
2022-09-03T13:38:42.826Z,1.25
2022-09-03T13:42:13.451Z,3.13
2022-09-03T13:45:31.202Z,1.45
2022-09-03T13:49:00.397Z,3.05
2022-09-03T13:52:07.770Z,3.05
2022-09-03T13:55:19.890Z,1.80
2022-09-03T13:58:54.677Z,3.30
2022-09-03T14:02:05.796Z,4.22
2022-09-03T14:05:32.400Z,3.45
2022-09-03T14:09:04.442Z,2.60
2022-09-03T14:12:25.533Z,2.80
2022-09-03T14:15:45.733Z,2.90
2022-09-03T14:19:07.321Z,2.83
2022-09-03T14:22:34.829Z,3.00
2022-09-03T14:25:36.878Z,2.78
2022-09-03T14:28:44.092Z,2.67
2022-09-03T14:32:13.677Z,2.53
2022-09-03T14:35:30.985Z,2.75
2022-09-03T14:38:53.752Z,2.67
2022-09-03T14:45:16.661Z,2.88
2022-09-03T14:48:33.700Z,2.45
2022-09-03T14:51:35.614Z,2.53
2022-09-03T14:55:08.288Z,3.08
2022-09-03T14:58:24.661Z,2.20
2022-09-03T15:01:37.609Z,2.00
2022-09-03T15:04:56.081Z,2.10
2022-09-03T15:08:17.196Z,2.00
2022-09-03T15:11:30.352Z,2.20
2022-09-03T15:14:55.616Z,2.22
2022-09-03T15:18:03.903Z,2.55
2022-09-03T15:21:48.409Z,1.92
2022-09-03T15:25:08.888Z,1.88
2022-09-03T15:28:16.270Z,1.70
2022-09-03T15:31:45.944Z,2.05
2022-09-03T15:35:09.661Z,1.55
2022-09-03T15:38:35.894Z,1.63
2022-09-03T15:41:40.938Z,1.33
2022-09-03T15:44:50.274Z,2.10
2022-09-03T15:48:01.703Z,1.60
2022-09-03T15:51:13.051Z,2.05
2022-09-03T15:54:43.181Z,1.98
2022-09-03T15:58:21.157Z,2.60
2022-09-03T16:01:34.275Z,1.73
2022-09-03T16:05:07.180Z,1.45
2022-09-03T16:08:34.148Z,1.60
2022-09-03T16:11:39.080Z,1.98
2022-09-03T16:14:47.135Z,1.60
2022-09-03T16:18:06.743Z,1.38
2022-09-03T16:21:39.403Z,1.10
2022-09-03T16:24:47.642Z,1.30
2022-09-03T16:28:01.648Z,0.95
2022-09-03T16:31:24.247Z,1.17
2022-09-03T16:34:51.179Z,1.20
2022-09-03T16:38:02.718Z,1.80
2022-09-03T16:41:13.012Z,1.38
2022-09-03T16:44:14.986Z,1.20
2022-09-03T16:47:44.918Z,1.38
2022-09-03T16:50:58.222Z,1.40
2022-09-03T16:54:12.669Z,2.35
2022-09-03T16:57:24.597Z,1.40
2022-09-03T17:00:47.595Z,1.30
2022-09-03T17:04:22.709Z,1.40
2022-09-03T17:07:54.850Z,1.60
2022-09-03T17:14:17.904Z,1.40
2022-09-03T17:17:25.796Z,1.40
2022-09-03T17:20:40.853Z,1.50
2022-09-03T17:24:10.952Z,1.30
2022-09-03T17:27:21.054Z,1.58
2022-09-03T17:30:35.783Z,1.40
2022-09-03T17:34:15.735Z,1.50
2022-09-03T17:37:31.850Z,1.30
2022-09-03T17:41:13.977Z,1.60
2022-09-03T17:44:24.367Z,1.65
2022-09-03T17:47:56.367Z,1.48
2022-09-03T17:51:14.841Z,1.35
2022-09-03T17:54:24.570Z,1.55
2022-09-03T17:57:41.743Z,1.60
2022-09-03T18:01:11.051Z,1.10
2022-09-03T18:04:39.018Z,1.27
2022-09-03T18:08:16.829Z,1.40
2022-09-03T18:11:30.799Z,1.20
2022-09-03T18:14:53.479Z,1.38
2022-09-03T18:18:12.748Z,1.70
2022-09-03T18:21:44.587Z,1.50
2022-09-03T18:25:17.918Z,1.40
2022-09-03T18:28:48.206Z,1.30
2022-09-03T18:32:09.127Z,1.40
2022-09-03T18:35:30.641Z,2.08
2022-09-03T18:38:56.814Z,1.60
2022-09-03T18:43:25.316Z,1.63
2022-09-03T18:48:01.888Z,1.70
2022-09-03T18:51:19.552Z,1.52
2022-09-03T18:55:08.818Z,1.63
2022-09-03T18:58:49.150Z,1.67
2022-09-03T19:02:12.460Z,1.60
2022-09-03T19:05:46.797Z,1.55
2022-09-03T19:09:24.757Z,1.70
2022-09-03T19:13:15.582Z,1.90
2022-09-03T19:16:48.889Z,1.90
2022-09-03T19:20:42.894Z,1.73
2022-09-03T19:24:04.008Z,1.70
2022-09-03T19:31:37.770Z,1.55
2022-09-03T19:35:22.794Z,1.67
2022-09-03T19:39:07.017Z,1.48
2022-09-03T19:42:53.019Z,1.50
2022-09-03T19:46:53.899Z,1.30
2022-09-03T19:50:56.665Z,1.50
2022-09-03T19:54:21.214Z,1.65
2022-09-03T19:57:47.172Z,1.52
2022-09-03T20:01:08.280Z,1.58
2022-09-03T20:04:36.625Z,1.70
2022-09-03T20:07:57.647Z,1.65
2022-09-03T20:11:00.826Z,1.60
2022-09-03T20:14:14.905Z,1.60
2022-09-03T20:17:43.785Z,1.75
2022-09-03T20:21:13.003Z,1.58
2022-09-03T20:24:21.523Z,1.63
2022-09-03T20:27:34.137Z,1.67
2022-09-03T20:30:44.966Z,2.00
2022-09-03T20:34:11.617Z,1.63
2022-09-03T20:37:28.543Z,1.50
2022-09-03T20:41:01.649Z,1.70
2022-09-03T20:44:16.845Z,1.60
2022-09-03T20:47:41.550Z,1.73
2022-09-03T20:50:57.484Z,2.00
2022-09-03T20:54:20.766Z,2.00
2022-09-03T20:57:37.939Z,2.42
2022-09-03T21:00:48.193Z,1.95
2022-09-03T21:04:08.916Z,1.83
2022-09-03T21:07:35.133Z,1.90
2022-09-03T21:10:52.753Z,2.20
2022-09-03T21:14:10.472Z,1.85
2022-09-03T21:17:29.787Z,2.05
2022-09-03T21:20:34.442Z,1.70
2022-09-03T21:23:42.152Z,1.92
2022-09-03T21:26:52.056Z,1.95
2022-09-03T21:30:07.774Z,1.90
2022-09-03T21:33:16.958Z,2.10
2022-09-03T21:36:30.579Z,2.00
2022-09-03T21:39:50.978Z,1.77
2022-09-03T21:43:04.365Z,2.00
2022-09-03T21:46:17.303Z,1.80
2022-09-03T21:49:26.368Z,2.28
2022-09-03T21:52:47.858Z,2.10
2022-09-03T21:55:55.925Z,2.22
2022-09-03T21:59:35.541Z,1.92
2022-09-03T22:02:38.593Z,2.05
2022-09-03T22:06:08.608Z,2.00
2022-09-03T22:09:56.800Z,2.10
2022-09-03T22:13:23.485Z,1.90
2022-09-03T22:16:46.405Z,2.28
2022-09-03T22:19:48.326Z,2.08
2022-09-03T22:22:56.626Z,2.47
2022-09-03T22:26:07.511Z,2.17
2022-09-03T22:29:52.012Z,2.00
2022-09-03T22:32:57.958Z,2.17
2022-09-03T22:36:21.245Z,2.33
2022-09-03T22:39:36.560Z,2.28
2022-09-03T22:42:51.602Z,2.47
2022-09-03T22:46:05.536Z,2.42
2022-09-03T22:49:14.522Z,2.38
2022-09-03T22:52:19.555Z,2.55
2022-09-03T22:55:25.424Z,2.28
2022-09-03T22:58:33.600Z,2.72
2022-09-03T23:01:44.709Z,2.25
2022-09-03T23:05:10.176Z,2.25
2022-09-03T23:08:18.091Z,2.15
2022-09-03T23:11:25.903Z,2.35
2022-09-03T23:14:34.545Z,2.45
2022-09-03T23:17:43.105Z,2.60
2022-09-03T23:20:55.458Z,2.50
2022-09-03T23:24:04.143Z,2.50
2022-09-03T23:27:10.784Z,2.38
2022-09-03T23:30:12.747Z,2.42
2022-09-03T23:33:14.882Z,2.23
2022-09-03T23:37:01.303Z,2.17
2022-09-03T23:40:14.886Z,2.50
2022-09-03T23:43:25.808Z,2.47
2022-09-03T23:46:58.597Z,2.40
2022-09-03T23:50:09.355Z,2.70
2022-09-03T23:53:20.426Z,2.40
2022-09-03T23:56:34.738Z,2.60
2022-09-03T23:59:48.765Z,2.55
